sensor_id;sensor_type;location;lat;lon;timestamp;P1;durP1;ratioP1;P2;durP2;ratioP2
13240;SDS011;6687;47.790;7.322;2022-08-19T06:13:33;1.08;;;1.00;;
13240;SDS011;6687;47.790;7.322;2022-08-19T06:15:59;2.03;;;1.40;;
13240;SDS011;6687;47.790;7.322;2022-08-19T06:18:26;1.30;;;1.10;;
13240;SDS011;6687;47.790;7.322;2022-08-19T06:20:53;1.58;;;1.10;;
13240;SDS011;6687;47.790;7.322;2022-08-19T06:23:19;1.67;;;1.27;;
13240;SDS011;6687;47.790;7.322;2022-08-19T06:25:46;2.03;;;1.25;;
13240;SDS011;6687;47.790;7.322;2022-08-19T06:28:13;1.70;;;1.38;;
13240;SDS011;6687;47.790;7.322;2022-08-19T06:30:41;1.33;;;1.15;;
13240;SDS011;6687;47.790;7.322;2022-08-19T06:33:08;1.63;;;1.27;;
13240;SDS011;6687;47.790;7.322;2022-08-19T06:35:38;1.35;;;0.82;;
13240;SDS011;6687;47.790;7.322;2022-08-19T06:38:05;1.75;;;1.17;;
13240;SDS011;6687;47.790;7.322;2022-08-19T06:40:31;2.50;;;1.27;;
13240;SDS011;6687;47.790;7.322;2022-08-19T06:42:58;1.15;;;1.08;;
13240;SDS011;6687;47.790;7.322;2022-08-19T06:45:27;2.13;;;1.40;;
13240;SDS011;6687;47.790;7.322;2022-08-19T06:47:55;1.70;;;1.30;;
13240;SDS011;6687;47.790;7.322;2022-08-19T06:50:22;2.97;;;1.30;;
13240;SDS011;6687;47.790;7.322;2022-08-19T06:52:49;1.27;;;1.17;;
13240;SDS011;6687;47.790;7.322;2022-08-19T06:55:16;1.95;;;1.45;;
13240;SDS011;6687;47.790;7.322;2022-08-19T06:57:42;1.25;;;1.15;;
13240;SDS011;6687;47.790;7.322;2022-08-19T07:00:11;2.78;;;1.65;;
13240;SDS011;6687;47.790;7.322;2022-08-19T07:02:39;1.60;;;1.50;;
13240;SDS011;6687;47.790;7.322;2022-08-19T07:05:08;1.98;;;1.52;;
13240;SDS011;6687;47.790;7.322;2022-08-19T07:07:35;2.03;;;1.50;;
13240;SDS011;6687;47.790;7.322;2022-08-19T07:10:02;1.65;;;1.50;;
13240;SDS011;6687;47.790;7.322;2022-08-19T07:12:30;1.58;;;1.42;;
13240;SDS011;6687;47.790;7.322;2022-08-19T07:14:59;2.38;;;1.67;;
13240;SDS011;6687;47.790;7.322;2022-08-19T07:17:26;1.92;;;1.40;;
13240;SDS011;6687;47.790;7.322;2022-08-19T07:19:53;2.78;;;1.92;;
13240;SDS011;6687;47.790;7.322;2022-08-19T07:22:21;3.33;;;1.55;;
13240;SDS011;6687;47.790;7.322;2022-08-19T07:24:48;2.90;;;1.77;;
13240;SDS011;6687;47.790;7.322;2022-08-19T07:27:15;2.55;;;1.70;;
13240;SDS011;6687;47.790;7.322;2022-08-19T07:29:42;2.15;;;1.60;;
13240;SDS011;6687;47.790;7.322;2022-08-19T07:32:08;1.90;;;1.60;;
13240;SDS011;6687;47.790;7.322;2022-08-19T07:34:36;2.03;;;1.80;;
13240;SDS011;6687;47.790;7.322;2022-08-19T07:37:03;2.65;;;1.75;;
13240;SDS011;6687;47.790;7.322;2022-08-19T07:39:33;2.38;;;1.92;;
13240;SDS011;6687;47.790;7.322;2022-08-19T07:42:03;2.55;;;1.58;;
13240;SDS011;6687;47.790;7.322;2022-08-19T07:44:34;1.80;;;1.60;;
13240;SDS011;6687;47.790;7.322;2022-08-19T07:47:01;3.53;;;1.83;;
13240;SDS011;6687;47.790;7.322;2022-08-19T07:49:29;3.10;;;1.90;;
13240;SDS011;6687;47.790;7.322;2022-08-19T07:51:57;1.83;;;1.55;;
13240;SDS011;6687;47.790;7.322;2022-08-19T07:54:26;2.35;;;1.77;;
13240;SDS011;6687;47.790;7.322;2022-08-19T07:56:56;2.25;;;1.58;;
13240;SDS011;6687;47.790;7.322;2022-08-19T07:59:23;2.72;;;1.80;;
13240;SDS011;6687;47.790;7.322;2022-08-19T08:01:50;2.35;;;1.77;;
13240;SDS011;6687;47.790;7.322;2022-08-19T08:04:17;3.97;;;1.80;;
13240;SDS011;6687;47.790;7.322;2022-08-19T08:07:02;3.20;;;1.80;;
13240;SDS011;6687;47.790;7.322;2022-08-19T08:09:47;2.92;;;2.00;;
13240;SDS011;6687;47.790;7.322;2022-08-19T08:12:15;2.17;;;1.92;;
13240;SDS011;6687;47.790;7.322;2022-08-19T08:14:45;2.58;;;2.35;;
13240;SDS011;6687;47.790;7.322;2022-08-19T08:17:15;2.35;;;2.05;;
13240;SDS011;6687;47.790;7.322;2022-08-19T08:19:43;3.28;;;1.80;;
13240;SDS011;6687;47.790;7.322;2022-08-19T08:22:11;2.25;;;2.00;;
13240;SDS011;6687;47.790;7.322;2022-08-19T08:25:03;2.67;;;1.77;;
13240;SDS011;6687;47.790;7.322;2022-08-19T08:27:36;2.67;;;2.13;;
13240;SDS011;6687;47.790;7.322;2022-08-19T08:30:05;1.98;;;1.63;;
13240;SDS011;6687;47.790;7.322;2022-08-19T08:32:34;2.63;;;2.17;;
13240;SDS011;6687;47.790;7.322;2022-08-19T08:35:01;3.40;;;2.00;;
13240;SDS011;6687;47.790;7.322;2022-08-19T08:37:28;2.40;;;1.88;;
13240;SDS011;6687;47.790;7.322;2022-08-19T08:39:55;2.17;;;1.98;;
13240;SDS011;6687;47.790;7.322;2022-08-19T08:42:22;2.38;;;2.08;;
13240;SDS011;6687;47.790;7.322;2022-08-19T08:44:58;2.72;;;1.83;;
13240;SDS011;6687;47.790;7.322;2022-08-19T08:47:28;2.63;;;1.77;;
13240;SDS011;6687;47.790;7.322;2022-08-19T08:50:02;2.05;;;1.85;;
13240;SDS011;6687;47.790;7.322;2022-08-19T08:52:32;2.42;;;1.77;;
13240;SDS011;6687;47.790;7.322;2022-08-19T08:55:03;2.13;;;1.88;;
13240;SDS011;6687;47.790;7.322;2022-08-19T08:57:35;6.25;;;2.17;;
13240;SDS011;6687;47.790;7.322;2022-08-19T09:00:08;2.75;;;1.63;;
13240;SDS011;6687;47.790;7.322;2022-08-19T09:02:37;3.65;;;1.98;;
13240;SDS011;6687;47.790;7.322;2022-08-19T09:05:04;3.47;;;2.72;;
13240;SDS011;6687;47.790;7.322;2022-08-19T09:07:42;6.45;;;2.67;;
13240;SDS011;6687;47.790;7.322;2022-08-19T09:10:16;3.10;;;2.30;;
13240;SDS011;6687;47.790;7.322;2022-08-19T09:12:51;2.42;;;2.00;;
13240;SDS011;6687;47.790;7.322;2022-08-19T09:15:28;2.95;;;2.33;;
13240;SDS011;6687;47.790;7.322;2022-08-19T09:18:00;3.97;;;2.50;;
13240;SDS011;6687;47.790;7.322;2022-08-19T09:20:28;2.53;;;2.05;;
13240;SDS011;6687;47.790;7.322;2022-08-19T09:22:56;2.58;;;2.30;;
13240;SDS011;6687;47.790;7.322;2022-08-19T09:25:24;3.50;;;2.10;;
13240;SDS011;6687;47.790;7.322;2022-08-19T09:27:52;3.80;;;2.10;;
13240;SDS011;6687;47.790;7.322;2022-08-19T09:30:23;3.55;;;2.33;;
13240;SDS011;6687;47.790;7.322;2022-08-19T09:32:54;6.65;;;2.63;;
13240;SDS011;6687;47.790;7.322;2022-08-19T09:35:21;5.00;;;2.53;;
13240;SDS011;6687;47.790;7.322;2022-08-19T09:37:50;3.30;;;2.58;;
13240;SDS011;6687;47.790;7.322;2022-08-19T09:40:17;3.25;;;2.53;;
13240;SDS011;6687;47.790;7.322;2022-08-19T09:42:45;4.40;;;2.63;;
13240;SDS011;6687;47.790;7.322;2022-08-19T09:45:12;3.97;;;2.40;;
13240;SDS011;6687;47.790;7.322;2022-08-19T09:47:40;3.88;;;2.50;;
13240;SDS011;6687;47.790;7.322;2022-08-19T09:50:09;3.03;;;1.98;;
13240;SDS011;6687;47.790;7.322;2022-08-19T09:52:38;3.55;;;2.22;;
13240;SDS011;6687;47.790;7.322;2022-08-19T09:55:07;3.70;;;2.40;;
13240;SDS011;6687;47.790;7.322;2022-08-19T09:57:35;3.38;;;2.50;;
13240;SDS011;6687;47.790;7.322;2022-08-19T10:00:02;2.50;;;2.03;;
13240;SDS011;6687;47.790;7.322;2022-08-19T10:02:30;5.13;;;2.85;;
13240;SDS011;6687;47.790;7.322;2022-08-19T10:04:57;3.28;;;2.17;;
13240;SDS011;6687;47.790;7.322;2022-08-19T10:07:43;3.15;;;2.33;;
13240;SDS011;6687;47.790;7.322;2022-08-19T10:10:10;4.03;;;2.00;;
13240;SDS011;6687;47.790;7.322;2022-08-19T10:12:36;4.43;;;2.75;;
13240;SDS011;6687;47.790;7.322;2022-08-19T10:15:04;3.78;;;2.67;;
13240;SDS011;6687;47.790;7.322;2022-08-19T10:17:32;4.68;;;3.25;;
13240;SDS011;6687;47.790;7.322;2022-08-19T10:20:00;4.90;;;2.72;;
13240;SDS011;6687;47.790;7.322;2022-08-19T10:22:28;4.65;;;2.65;;
13240;SDS011;6687;47.790;7.322;2022-08-19T10:24:57;4.22;;;3.05;;
13240;SDS011;6687;47.790;7.322;2022-08-19T10:27:23;4.05;;;2.55;;
13240;SDS011;6687;47.790;7.322;2022-08-19T10:29:50;4.30;;;2.80;;
13240;SDS011;6687;47.790;7.322;2022-08-19T10:32:17;7.22;;;3.00;;
13240;SDS011;6687;47.790;7.322;2022-08-19T10:34:44;5.78;;;3.60;;
13240;SDS011;6687;47.790;7.322;2022-08-19T10:37:11;3.58;;;2.60;;
13240;SDS011;6687;47.790;7.322;2022-08-19T10:39:38;3.58;;;2.75;;
13240;SDS011;6687;47.790;7.322;2022-08-19T10:42:06;3.80;;;2.50;;
13240;SDS011;6687;47.790;7.322;2022-08-19T10:44:35;3.80;;;2.55;;
13240;SDS011;6687;47.790;7.322;2022-08-19T10:47:02;5.00;;;3.75;;
13240;SDS011;6687;47.790;7.322;2022-08-19T10:49:30;5.25;;;3.08;;
13240;SDS011;6687;47.790;7.322;2022-08-19T10:52:17;6.47;;;3.70;;
13240;SDS011;6687;47.790;7.322;2022-08-19T10:54:58;5.75;;;3.45;;
13240;SDS011;6687;47.790;7.322;2022-08-19T10:57:52;3.92;;;2.65;;
13240;SDS011;6687;47.790;7.322;2022-08-19T11:00:19;4.38;;;3.28;;
13240;SDS011;6687;47.790;7.322;2022-08-19T11:02:46;4.55;;;3.38;;
13240;SDS011;6687;47.790;7.322;2022-08-19T11:05:13;5.68;;;3.33;;
13240;SDS011;6687;47.790;7.322;2022-08-19T11:07:40;5.97;;;3.13;;
13240;SDS011;6687;47.790;7.322;2022-08-19T11:10:08;4.70;;;3.17;;
13240;SDS011;6687;47.790;7.322;2022-08-19T11:12:36;5.32;;;4.00;;
13240;SDS011;6687;47.790;7.322;2022-08-19T11:15:07;4.68;;;3.35;;
13240;SDS011;6687;47.790;7.322;2022-08-19T11:17:35;4.65;;;3.00;;
13240;SDS011;6687;47.790;7.322;2022-08-19T11:20:05;4.32;;;2.97;;
13240;SDS011;6687;47.790;7.322;2022-08-19T11:22:33;5.88;;;2.83;;
13240;SDS011;6687;47.790;7.322;2022-08-19T11:25:00;7.60;;;5.15;;
13240;SDS011;6687;47.790;7.322;2022-08-19T11:27:27;7.25;;;4.55;;
13240;SDS011;6687;47.790;7.322;2022-08-19T11:29:54;6.22;;;4.30;;
13240;SDS011;6687;47.790;7.322;2022-08-19T11:32:22;5.90;;;3.88;;
13240;SDS011;6687;47.790;7.322;2022-08-19T11:34:49;7.88;;;4.80;;
13240;SDS011;6687;47.790;7.322;2022-08-19T11:37:16;5.35;;;3.53;;
13240;SDS011;6687;47.790;7.322;2022-08-19T11:39:43;5.40;;;3.13;;
13240;SDS011;6687;47.790;7.322;2022-08-19T11:42:09;4.95;;;2.92;;
13240;SDS011;6687;47.790;7.322;2022-08-19T11:44:54;3.95;;;3.13;;
13240;SDS011;6687;47.790;7.322;2022-08-19T11:47:22;6.38;;;3.97;;
13240;SDS011;6687;47.790;7.322;2022-08-19T11:49:49;5.38;;;3.00;;
13240;SDS011;6687;47.790;7.322;2022-08-19T11:52:16;4.57;;;2.88;;
13240;SDS011;6687;47.790;7.322;2022-08-19T11:54:42;4.85;;;2.97;;
13240;SDS011;6687;47.790;7.322;2022-08-19T11:57:09;5.20;;;3.35;;
13240;SDS011;6687;47.790;7.322;2022-08-19T11:59:36;4.70;;;3.30;;
13240;SDS011;6687;47.790;7.322;2022-08-19T12:02:02;6.05;;;3.05;;
13240;SDS011;6687;47.790;7.322;2022-08-19T12:04:31;5.63;;;3.70;;
13240;SDS011;6687;47.790;7.322;2022-08-19T12:06:58;6.75;;;3.17;;
13240;SDS011;6687;47.790;7.322;2022-08-19T12:09:25;5.65;;;3.30;;
13240;SDS011;6687;47.790;7.322;2022-08-19T12:11:52;5.38;;;3.40;;
13240;SDS011;6687;47.790;7.322;2022-08-19T12:14:20;6.15;;;3.30;;
13240;SDS011;6687;47.790;7.322;2022-08-19T12:16:48;4.97;;;3.40;;
13240;SDS011;6687;47.790;7.322;2022-08-19T12:19:15;3.92;;;2.55;;
13240;SDS011;6687;47.790;7.322;2022-08-19T12:21:44;4.90;;;3.22;;
13240;SDS011;6687;47.790;7.322;2022-08-19T12:24:11;4.70;;;3.20;;
13240;SDS011;6687;47.790;7.322;2022-08-19T12:26:38;4.93;;;3.45;;
13240;SDS011;6687;47.790;7.322;2022-08-19T12:29:06;4.72;;;3.00;;
13240;SDS011;6687;47.790;7.322;2022-08-19T12:31:34;6.82;;;3.80;;
13240;SDS011;6687;47.790;7.322;2022-08-19T12:34:02;4.88;;;3.35;;
13240;SDS011;6687;47.790;7.322;2022-08-19T12:36:29;6.63;;;3.30;;
13240;SDS011;6687;47.790;7.322;2022-08-19T12:38:58;5.28;;;3.83;;
13240;SDS011;6687;47.790;7.322;2022-08-19T12:41:26;4.15;;;3.08;;
13240;SDS011;6687;47.790;7.322;2022-08-19T12:43:52;7.47;;;3.95;;
13240;SDS011;6687;47.790;7.322;2022-08-19T12:46:19;6.43;;;4.43;;
13240;SDS011;6687;47.790;7.322;2022-08-19T12:48:47;5.30;;;3.67;;
13240;SDS011;6687;47.790;7.322;2022-08-19T12:51:14;7.13;;;4.30;;
13240;SDS011;6687;47.790;7.322;2022-08-19T12:53:43;6.07;;;4.15;;
13240;SDS011;6687;47.790;7.322;2022-08-19T12:56:12;6.15;;;4.70;;
13240;SDS011;6687;47.790;7.322;2022-08-19T12:58:40;6.78;;;4.35;;
13240;SDS011;6687;47.790;7.322;2022-08-19T13:01:09;6.93;;;4.90;;
13240;SDS011;6687;47.790;7.322;2022-08-19T13:03:38;5.93;;;4.35;;
13240;SDS011;6687;47.790;7.322;2022-08-19T13:06:06;5.28;;;3.83;;
13240;SDS011;6687;47.790;7.322;2022-08-19T13:08:33;6.45;;;4.95;;
13240;SDS011;6687;47.790;7.322;2022-08-19T13:11:06;5.63;;;4.72;;
13240;SDS011;6687;47.790;7.322;2022-08-19T13:13:38;7.47;;;5.50;;
13240;SDS011;6687;47.790;7.322;2022-08-19T13:16:07;8.05;;;5.95;;
13240;SDS011;6687;47.790;7.322;2022-08-19T13:18:36;9.18;;;6.03;;
13240;SDS011;6687;47.790;7.322;2022-08-19T13:21:04;7.07;;;4.88;;
13240;SDS011;6687;47.790;7.322;2022-08-19T13:23:32;6.25;;;4.53;;
13240;SDS011;6687;47.790;7.322;2022-08-19T13:26:00;9.23;;;6.07;;
13240;SDS011;6687;47.790;7.322;2022-08-19T13:28:29;7.78;;;5.47;;
13240;SDS011;6687;47.790;7.322;2022-08-19T13:31:19;6.88;;;4.53;;
13240;SDS011;6687;47.790;7.322;2022-08-19T13:34:05;7.40;;;5.18;;
13240;SDS011;6687;47.790;7.322;2022-08-19T13:36:33;8.77;;;5.85;;
13240;SDS011;6687;47.790;7.322;2022-08-19T13:39:01;8.32;;;5.45;;
13240;SDS011;6687;47.790;7.322;2022-08-19T13:41:29;6.90;;;5.25;;
13240;SDS011;6687;47.790;7.322;2022-08-19T13:43:56;7.00;;;5.15;;
13240;SDS011;6687;47.790;7.322;2022-08-19T13:46:25;9.23;;;5.57;;
13240;SDS011;6687;47.790;7.322;2022-08-19T13:48:54;7.18;;;4.80;;
13240;SDS011;6687;47.790;7.322;2022-08-19T13:51:21;7.20;;;5.03;;
13240;SDS011;6687;47.790;7.322;2022-08-19T13:53:49;8.63;;;5.45;;
13240;SDS011;6687;47.790;7.322;2022-08-19T13:56:17;9.07;;;4.47;;
13240;SDS011;6687;47.790;7.322;2022-08-19T13:58:46;4.70;;;3.70;;
13240;SDS011;6687;47.790;7.322;2022-08-19T14:01:18;5.32;;;3.75;;
13240;SDS011;6687;47.790;7.322;2022-08-19T14:03:48;5.57;;;4.05;;
13240;SDS011;6687;47.790;7.322;2022-08-19T14:06:15;6.00;;;4.35;;
13240;SDS011;6687;47.790;7.322;2022-08-19T14:08:43;6.85;;;4.32;;
13240;SDS011;6687;47.790;7.322;2022-08-19T14:11:10;5.22;;;3.92;;
13240;SDS011;6687;47.790;7.322;2022-08-19T14:13:37;5.85;;;4.25;;
13240;SDS011;6687;47.790;7.322;2022-08-19T14:16:06;4.65;;;3.60;;
13240;SDS011;6687;47.790;7.322;2022-08-19T14:18:34;5.28;;;3.78;;
13240;SDS011;6687;47.790;7.322;2022-08-19T14:21:04;5.88;;;3.40;;
13240;SDS011;6687;47.790;7.322;2022-08-19T14:23:31;5.70;;;3.92;;
13240;SDS011;6687;47.790;7.322;2022-08-19T14:26:04;5.28;;;3.83;;
13240;SDS011;6687;47.790;7.322;2022-08-19T14:28:32;5.75;;;4.30;;
13240;SDS011;6687;47.790;7.322;2022-08-19T14:30:59;3.90;;;3.40;;
13240;SDS011;6687;47.790;7.322;2022-08-19T14:33:26;5.47;;;3.63;;
13240;SDS011;6687;47.790;7.322;2022-08-19T14:35:52;5.28;;;3.83;;
13240;SDS011;6687;47.790;7.322;2022-08-19T14:38:20;4.78;;;3.50;;
13240;SDS011;6687;47.790;7.322;2022-08-19T14:40:47;5.45;;;3.60;;
13240;SDS011;6687;47.790;7.322;2022-08-19T14:43:14;6.63;;;4.53;;
13240;SDS011;6687;47.790;7.322;2022-08-19T14:45:42;5.03;;;3.45;;
13240;SDS011;6687;47.790;7.322;2022-08-19T14:48:09;4.57;;;3.58;;
13240;SDS011;6687;47.790;7.322;2022-08-19T14:50:36;6.35;;;4.40;;
13240;SDS011;6687;47.790;7.322;2022-08-19T14:53:04;6.00;;;3.90;;
13240;SDS011;6687;47.790;7.322;2022-08-19T14:55:34;4.97;;;3.50;;
13240;SDS011;6687;47.790;7.322;2022-08-19T14:58:01;5.13;;;3.70;;
13240;SDS011;6687;47.790;7.322;2022-08-19T15:00:28;6.22;;;3.63;;
13240;SDS011;6687;47.790;7.322;2022-08-19T15:02:55;5.85;;;4.45;;
13240;SDS011;6687;47.790;7.322;2022-08-19T15:05:22;6.68;;;4.47;;
13240;SDS011;6687;47.790;7.322;2022-08-19T15:07:48;5.22;;;3.80;;
13240;SDS011;6687;47.790;7.322;2022-08-19T15:10:15;5.18;;;3.72;;
13240;SDS011;6687;47.790;7.322;2022-08-19T15:12:44;6.03;;;3.97;;
13240;SDS011;6687;47.790;7.322;2022-08-19T15:15:11;5.75;;;4.22;;
13240;SDS011;6687;47.790;7.322;2022-08-19T15:17:42;5.32;;;3.83;;
13240;SDS011;6687;47.790;7.322;2022-08-19T15:20:09;5.20;;;3.72;;
13240;SDS011;6687;47.790;7.322;2022-08-19T15:22:37;5.68;;;4.05;;
13240;SDS011;6687;47.790;7.322;2022-08-19T15:25:05;5.95;;;3.67;;
13240;SDS011;6687;47.790;7.322;2022-08-19T15:27:34;4.35;;;3.75;;
13240;SDS011;6687;47.790;7.322;2022-08-19T15:30:03;5.97;;;3.67;;
13240;SDS011;6687;47.790;7.322;2022-08-19T15:32:31;5.00;;;3.17;;
13240;SDS011;6687;47.790;7.322;2022-08-19T15:34:58;4.78;;;3.60;;
13240;SDS011;6687;47.790;7.322;2022-08-19T15:37:26;5.97;;;4.28;;
13240;SDS011;6687;47.790;7.322;2022-08-19T15:39:53;4.15;;;3.40;;
13240;SDS011;6687;47.790;7.322;2022-08-19T15:42:19;4.43;;;3.53;;
13240;SDS011;6687;47.790;7.322;2022-08-19T15:44:47;5.72;;;3.58;;
13240;SDS011;6687;47.790;7.322;2022-08-19T15:47:15;3.88;;;2.83;;
13240;SDS011;6687;47.790;7.322;2022-08-19T15:49:44;4.90;;;3.17;;
13240;SDS011;6687;47.790;7.322;2022-08-19T15:52:10;5.03;;;3.70;;
13240;SDS011;6687;47.790;7.322;2022-08-19T15:54:37;3.03;;;2.63;;
13240;SDS011;6687;47.790;7.322;2022-08-19T15:57:05;3.40;;;2.63;;
13240;SDS011;6687;47.790;7.322;2022-08-19T15:59:49;3.83;;;3.00;;
13240;SDS011;6687;47.790;7.322;2022-08-19T16:02:37;3.67;;;2.67;;
13240;SDS011;6687;47.790;7.322;2022-08-19T16:05:23;5.00;;;3.30;;
13240;SDS011;6687;47.790;7.322;2022-08-19T16:08:09;3.67;;;2.95;;
13240;SDS011;6687;47.790;7.322;2022-08-19T16:10:37;3.80;;;2.80;;
13240;SDS011;6687;47.790;7.322;2022-08-19T16:13:05;3.83;;;3.20;;
13240;SDS011;6687;47.790;7.322;2022-08-19T16:15:34;5.78;;;2.88;;
13240;SDS011;6687;47.790;7.322;2022-08-19T16:18:02;4.25;;;3.20;;
13240;SDS011;6687;47.790;7.322;2022-08-19T16:20:29;4.10;;;3.08;;
13240;SDS011;6687;47.790;7.322;2022-08-19T16:22:57;4.88;;;3.13;;
13240;SDS011;6687;47.790;7.322;2022-08-19T16:25:25;3.78;;;3.10;;
13240;SDS011;6687;47.790;7.322;2022-08-19T16:27:54;4.95;;;2.75;;
13240;SDS011;6687;47.790;7.322;2022-08-19T16:30:20;5.25;;;3.88;;
13240;SDS011;6687;47.790;7.322;2022-08-19T16:32:47;4.30;;;3.42;;
13240;SDS011;6687;47.790;7.322;2022-08-19T16:35:15;4.10;;;2.90;;
13240;SDS011;6687;47.790;7.322;2022-08-19T16:37:42;3.90;;;3.20;;
13240;SDS011;6687;47.790;7.322;2022-08-19T16:40:09;3.30;;;2.97;;
13240;SDS011;6687;47.790;7.322;2022-08-19T16:42:36;4.40;;;2.85;;
13240;SDS011;6687;47.790;7.322;2022-08-19T16:45:04;4.07;;;2.67;;
13240;SDS011;6687;47.790;7.322;2022-08-19T16:47:33;3.33;;;3.00;;
13240;SDS011;6687;47.790;7.322;2022-08-19T16:50:00;3.03;;;2.60;;
13240;SDS011;6687;47.790;7.322;2022-08-19T16:52:28;4.05;;;3.40;;
13240;SDS011;6687;47.790;7.322;2022-08-19T16:54:55;5.57;;;3.08;;
13240;SDS011;6687;47.790;7.322;2022-08-19T16:57:22;4.47;;;2.83;;
13240;SDS011;6687;47.790;7.322;2022-08-19T16:59:49;3.13;;;2.83;;
13240;SDS011;6687;47.790;7.322;2022-08-19T17:02:16;3.85;;;2.95;;
13240;SDS011;6687;47.790;7.322;2022-08-19T17:04:44;3.17;;;2.72;;
13240;SDS011;6687;47.790;7.322;2022-08-19T17:07:11;5.47;;;3.15;;
13240;SDS011;6687;47.790;7.322;2022-08-19T17:09:39;3.58;;;3.28;;
13240;SDS011;6687;47.790;7.322;2022-08-19T17:12:06;3.50;;;2.80;;
13240;SDS011;6687;47.790;7.322;2022-08-19T17:14:33;5.35;;;2.85;;
13240;SDS011;6687;47.790;7.322;2022-08-19T17:17:00;3.65;;;2.65;;
13240;SDS011;6687;47.790;7.322;2022-08-19T17:19:26;3.28;;;2.70;;
13240;SDS011;6687;47.790;7.322;2022-08-19T17:21:53;3.75;;;3.13;;
13240;SDS011;6687;47.790;7.322;2022-08-19T17:24:21;3.33;;;2.47;;
13240;SDS011;6687;47.790;7.322;2022-08-19T17:26:49;3.72;;;2.90;;
13240;SDS011;6687;47.790;7.322;2022-08-19T17:29:16;5.65;;;3.17;;
13240;SDS011;6687;47.790;7.322;2022-08-19T17:31:43;4.05;;;2.67;;
13240;SDS011;6687;47.790;7.322;2022-08-19T17:34:09;3.63;;;3.00;;
13240;SDS011;6687;47.790;7.322;2022-08-19T17:36:36;4.22;;;3.00;;
13240;SDS011;6687;47.790;7.322;2022-08-19T17:39:03;4.35;;;3.33;;
13240;SDS011;6687;47.790;7.322;2022-08-19T17:41:30;2.97;;;2.47;;
13240;SDS011;6687;47.790;7.322;2022-08-19T17:44:00;4.35;;;2.63;;
13240;SDS011;6687;47.790;7.322;2022-08-19T17:46:29;3.88;;;2.80;;
13240;SDS011;6687;47.790;7.322;2022-08-19T17:48:56;3.55;;;2.60;;
13240;SDS011;6687;47.790;7.322;2022-08-19T17:51:24;3.25;;;2.88;;
13240;SDS011;6687;47.790;7.322;2022-08-19T17:54:04;2.90;;;2.60;;
13240;SDS011;6687;47.790;7.322;2022-08-19T17:56:31;4.97;;;2.70;;
13240;SDS011;6687;47.790;7.322;2022-08-19T17:58:59;4.78;;;2.75;;
13240;SDS011;6687;47.790;7.322;2022-08-19T18:01:26;3.53;;;2.40;;
13240;SDS011;6687;47.790;7.322;2022-08-19T18:03:54;3.40;;;2.53;;
13240;SDS011;6687;47.790;7.322;2022-08-19T18:06:21;3.58;;;2.60;;
13240;SDS011;6687;47.790;7.322;2022-08-19T18:08:48;3.15;;;2.30;;
13240;SDS011;6687;47.790;7.322;2022-08-19T18:11:15;3.22;;;2.40;;
13240;SDS011;6687;47.790;7.322;2022-08-19T18:13:42;2.97;;;2.42;;
13240;SDS011;6687;47.790;7.322;2022-08-19T18:16:10;2.80;;;2.38;;
13240;SDS011;6687;47.790;7.322;2022-08-19T18:18:37;3.45;;;2.50;;
13240;SDS011;6687;47.790;7.322;2022-08-19T18:21:05;3.83;;;2.40;;
13240;SDS011;6687;47.790;7.322;2022-08-19T18:23:33;3.13;;;2.13;;
13240;SDS011;6687;47.790;7.322;2022-08-19T18:26:00;2.65;;;2.42;;
13240;SDS011;6687;47.790;7.322;2022-08-19T18:28:27;3.88;;;2.47;;
13240;SDS011;6687;47.790;7.322;2022-08-19T18:30:53;3.83;;;2.60;;
13240;SDS011;6687;47.790;7.322;2022-08-19T18:33:22;3.50;;;2.17;;
13240;SDS011;6687;47.790;7.322;2022-08-19T18:35:49;2.33;;;2.13;;
13240;SDS011;6687;47.790;7.322;2022-08-19T18:38:18;3.35;;;2.65;;
13240;SDS011;6687;47.790;7.322;2022-08-19T18:41:03;3.40;;;2.75;;
13240;SDS011;6687;47.790;7.322;2022-08-19T18:43:48;3.47;;;2.67;;
13240;SDS011;6687;47.790;7.322;2022-08-19T18:46:32;4.43;;;3.08;;
13240;SDS011;6687;47.790;7.322;2022-08-19T18:49:19;5.05;;;2.70;;
13240;SDS011;6687;47.790;7.322;2022-08-19T18:51:49;3.90;;;3.03;;
13240;SDS011;6687;47.790;7.322;2022-08-19T18:54:16;5.85;;;3.25;;
13240;SDS011;6687;47.790;7.322;2022-08-19T18:56:43;4.25;;;3.25;;
13240;SDS011;6687;47.790;7.322;2022-08-19T18:59:11;3.20;;;2.67;;
13240;SDS011;6687;47.790;7.322;2022-08-19T19:01:39;2.72;;;2.42;;
13240;SDS011;6687;47.790;7.322;2022-08-19T19:04:12;4.50;;;3.13;;
13240;SDS011;6687;47.790;7.322;2022-08-19T19:06:41;2.75;;;2.33;;
13240;SDS011;6687;47.790;7.322;2022-08-19T19:09:09;3.63;;;2.55;;
13240;SDS011;6687;47.790;7.322;2022-08-19T19:11:38;2.85;;;2.33;;
13240;SDS011;6687;47.790;7.322;2022-08-19T19:14:08;3.20;;;2.25;;
13240;SDS011;6687;47.790;7.322;2022-08-19T19:16:38;2.63;;;2.10;;
13240;SDS011;6687;47.790;7.322;2022-08-19T19:19:08;2.75;;;2.33;;
13240;SDS011;6687;47.790;7.322;2022-08-19T19:21:37;4.28;;;2.60;;
13240;SDS011;6687;47.790;7.322;2022-08-19T19:24:12;2.60;;;2.20;;
13240;SDS011;6687;47.790;7.322;2022-08-19T19:26:41;2.35;;;2.13;;
13240;SDS011;6687;47.790;7.322;2022-08-19T19:29:09;3.42;;;2.22;;
13240;SDS011;6687;47.790;7.322;2022-08-19T19:31:37;2.67;;;2.17;;
13240;SDS011;6687;47.790;7.322;2022-08-19T19:34:03;3.05;;;2.50;;
13240;SDS011;6687;47.790;7.322;2022-08-19T19:36:30;4.03;;;2.38;;
13240;SDS011;6687;47.790;7.322;2022-08-19T19:38:57;3.05;;;2.47;;
13240;SDS011;6687;47.790;7.322;2022-08-19T19:41:25;4.50;;;2.45;;
13240;SDS011;6687;47.790;7.322;2022-08-19T19:43:52;2.78;;;2.05;;
13240;SDS011;6687;47.790;7.322;2022-08-19T19:46:22;2.78;;;2.28;;
13240;SDS011;6687;47.790;7.322;2022-08-19T19:48:49;3.38;;;2.30;;
13240;SDS011;6687;47.790;7.322;2022-08-19T19:51:16;4.38;;;2.38;;
13240;SDS011;6687;47.790;7.322;2022-08-19T19:53:43;2.63;;;2.33;;
13240;SDS011;6687;47.790;7.322;2022-08-19T19:56:10;2.92;;;2.25;;
13240;SDS011;6687;47.790;7.322;2022-08-19T19:58:38;3.22;;;2.22;;
13240;SDS011;6687;47.790;7.322;2022-08-19T20:01:05;4.05;;;2.38;;
13240;SDS011;6687;47.790;7.322;2022-08-19T20:03:36;3.65;;;2.20;;
13240;SDS011;6687;47.790;7.322;2022-08-19T20:06:04;2.83;;;2.20;;
13240;SDS011;6687;47.790;7.322;2022-08-19T20:08:31;1.95;;;1.75;;
13240;SDS011;6687;47.790;7.322;2022-08-19T20:11:23;2.70;;;1.90;;
13240;SDS011;6687;47.790;7.322;2022-08-19T20:13:57;2.83;;;1.90;;
13240;SDS011;6687;47.790;7.322;2022-08-19T20:16:25;2.00;;;1.67;;
13240;SDS011;6687;47.790;7.322;2022-08-19T20:18:53;3.05;;;2.00;;
13240;SDS011;6687;47.790;7.322;2022-08-19T20:21:20;2.28;;;1.67;;
13240;SDS011;6687;47.790;7.322;2022-08-19T20:23:47;2.35;;;1.88;;
13240;SDS011;6687;47.790;7.322;2022-08-19T20:26:14;2.38;;;1.70;;
13240;SDS011;6687;47.790;7.322;2022-08-19T20:28:44;2.45;;;1.88;;
13240;SDS011;6687;47.790;7.322;2022-08-19T20:31:12;2.25;;;1.85;;
13240;SDS011;6687;47.790;7.322;2022-08-19T20:33:39;2.38;;;1.80;;
13240;SDS011;6687;47.790;7.322;2022-08-19T20:36:06;2.13;;;1.67;;
13240;SDS011;6687;47.790;7.322;2022-08-19T20:38:32;2.72;;;1.77;;
13240;SDS011;6687;47.790;7.322;2022-08-19T20:40:59;2.53;;;1.75;;
13240;SDS011;6687;47.790;7.322;2022-08-19T20:43:26;2.35;;;1.85;;
13240;SDS011;6687;47.790;7.322;2022-08-19T20:45:53;2.65;;;1.60;;
13240;SDS011;6687;47.790;7.322;2022-08-19T20:48:22;1.73;;;1.63;;
13240;SDS011;6687;47.790;7.322;2022-08-19T20:50:49;2.17;;;1.83;;
13240;SDS011;6687;47.790;7.322;2022-08-19T20:53:17;2.42;;;1.77;;
13240;SDS011;6687;47.790;7.322;2022-08-19T20:55:47;1.88;;;1.40;;
13240;SDS011;6687;47.790;7.322;2022-08-19T20:58:15;2.95;;;1.60;;
13240;SDS011;6687;47.790;7.322;2022-08-19T21:00:44;1.50;;;1.30;;
13240;SDS011;6687;47.790;7.322;2022-08-19T21:03:12;2.42;;;2.08;;
13240;SDS011;6687;47.790;7.322;2022-08-19T21:05:42;2.13;;;1.52;;
13240;SDS011;6687;47.790;7.322;2022-08-19T21:08:10;2.47;;;1.75;;
13240;SDS011;6687;47.790;7.322;2022-08-19T21:10:37;1.35;;;1.23;;
13240;SDS011;6687;47.790;7.322;2022-08-19T21:13:04;2.05;;;1.80;;
13240;SDS011;6687;47.790;7.322;2022-08-19T21:15:31;1.45;;;1.20;;
13240;SDS011;6687;47.790;7.322;2022-08-19T21:17:58;2.05;;;1.42;;
13240;SDS011;6687;47.790;7.322;2022-08-19T21:20:24;0.98;;;0.88;;
13240;SDS011;6687;47.790;7.322;2022-08-19T21:22:52;1.75;;;1.30;;